Time;durP1;ratioP1;P1;durP2;ratioP2;P2;SDS_P1;SDS_P2;PMS_P1;PMS_P2;Temp;Humidity;BMP_temperature;BMP_pressure;BME280_temperature;BME280_humidity;BME280_pressure;Samples;Min_cycle;Max_cycle;Signal;HPM_P1;HPM_P2
2023/06/30 00:01:14;;;;;;;;;;;;;;;27.09;33.10;100560.06;5055714;28;1059;-34
2023/06/30 00:03:39;;;;;;;;;;;;;;;27.14;33.00;100556.81;5055146;28;1227;-31
2023/06/30 00:06:05;;;;;;;;;;;;;;;27.07;33.12;100550.47;5055404;28;1151;-33
2023/06/30 00:08:32;;;;;;;;;;;;;;;27.18;32.83;100558.09;5055190;28;1262;-32
2023/06/30 00:10:58;;;;;;;;;;;;;;;27.09;33.28;100551.13;5055053;28;1176;-35
2023/06/30 00:13:23;;;;;;;;;;;;;;;27.06;32.84;100549.63;5055142;28;1056;-34
2023/06/30 00:15:49;;;;;;;;;;;;;;;27.26;32.69;100559.84;5055324;28;1075;-31
2023/06/30 00:18:15;;;;;;;;;;;;;;;26.97;33.08;100554.28;5055504;28;1106;-33
2023/06/30 00:20:40;;;;;;;;;;;;;;;27.08;33.08;100552.16;5054928;28;1906;-34
2023/06/30 00:23:08;;;;;;;;;;;;;;;27.14;32.99;100551.41;5057874;28;1179;-34
2023/06/30 00:25:34;;;;;;;;;;;;;;;27.14;32.69;100546.84;5059216;28;1108;-31
2023/06/30 00:27:59;;;;;;;;;;;;;;;27.16;32.79;100554.75;5058892;28;1077;-31
2023/06/30 00:30:25;;;;;;;;;;;;;;;27.05;32.91;100539.88;5059030;28;1130;-34
2023/06/30 00:32:50;;;;;;;;;;;;;;;27.10;32.69;100550.94;5058218;28;1344;-34
2023/06/30 00:35:17;;;;;;;;;;;;;;;27.07;32.95;100547.78;5091357;28;1222;-32
2023/06/30 00:37:43;;;;;;;;;;;;;;;27.11;32.94;100549.91;5057196;28;1103;-31
2023/06/30 00:40:09;;;;;;;;;;;;;;;26.95;33.38;100550.06;5057529;28;1901;-34
2023/06/30 00:42:35;;;;;;;;;;;;;;;27.10;32.94;100548.25;5058418;28;1296;-33
2023/06/30 00:45:01;;;;;;;;;;;;;;;27.06;32.95;100549.63;5058559;28;1063;-31
2023/06/30 00:47:26;;;;;;;;;;;;;;;27.00;33.44;100542.25;5090797;28;1325;-33
2023/06/30 00:49:52;;;;;;;;;;;;;;;27.06;33.40;100549.63;5058405;28;1206;-34
2023/06/30 00:52:17;;;;;;;;;;;;;;;27.13;33.30;100549.72;5044112;28;1052;-34
2023/06/30 00:54:43;;;;;;;;;;;;;;;27.02;33.00;100549.19;5058969;28;1095;-34
2023/06/30 00:57:08;;;;;;;;;;;;;;;27.07;33.18;100547.78;5057923;28;1138;-32
2023/06/30 00:59:34;;;;;;;;;;;;;;;26.97;33.14;100546.19;5057154;28;1906;-34
2023/06/30 01:02:04;;;;;;;;;;;;;;;27.25;32.75;100550.94;5057115;28;1331;-34
2023/06/30 01:04:35;;;;;;;;;;;;;;;27.10;33.36;100545.53;5056317;28;1068;-34
2023/06/30 01:07:08;;;;;;;;;;;;;;;27.16;33.01;100535.84;5073547;28;1167;-34
2023/06/30 01:09:35;;;;;;;;;;;;;;;27.04;32.82;100537.34;5058380;28;1068;-32
2023/06/30 01:12:01;;;;;;;;;;;;;;;26.93;33.26;100546.72;5073678;28;1015;-33
2023/06/30 01:14:26;;;;;;;;;;;;;;;27.13;32.74;100549.72;5056851;28;1103;-34
2023/06/30 01:16:52;;;;;;;;;;;;;;;27.11;32.61;100549.09;5058161;28;1123;-31
2023/06/30 01:19:28;;;;;;;;;;;;;;;27.10;32.88;100550.94;5057932;28;1982;-33
2023/06/30 01:21:54;;;;;;;;;;;;;;;27.00;32.97;100544.97;5056386;28;1102;-34
2023/06/30 01:24:19;;;;;;;;;;;;;;;27.08;32.62;100552.16;5073331;28;1055;-31
2023/06/30 01:26:45;;;;;;;;;;;;;;;27.01;33.10;100552.03;5073324;28;1150;-34
2023/06/30 01:29:10;;;;;;;;;;;;;;;27.03;33.08;100547.31;5073039;28;1079;-33
2023/06/30 01:31:36;;;;;;;;;;;;;;;27.17;32.73;100552.88;5056541;28;1095;-31
2023/06/30 01:34:01;;;;;;;;;;;;;;;27.16;32.39;100551.22;5072314;28;1214;-32
2023/06/30 01:36:27;;;;;;;;;;;;;;;27.10;32.89;100548.25;5057503;28;1427;-32
2023/06/30 01:38:52;;;;;;;;;;;;;;;26.96;32.69;100552.59;5055822;28;1899;-34
2023/06/30 01:41:19;;;;;;;;;;;;;;;27.03;32.60;100552.72;5057543;28;1091;-34
2023/06/30 01:43:45;;;;;;;;;;;;;;;27.14;32.51;100557.63;5057467;28;1108;-34
2023/06/30 01:46:10;;;;;;;;;;;;;;;27.00;32.67;100562.00;5057375;28;877;-32
2023/06/30 01:48:36;;;;;;;;;;;;;;;27.27;31.97;100556.13;5057885;28;1226;-33
2023/06/30 01:51:02;;;;;;;;;;;;;;;27.10;32.40;100553.66;5056095;28;1212;-34
2023/06/30 01:53:27;;;;;;;;;;;;;;;27.08;32.66;100553.00;5072520;28;1048;-34
2023/06/30 01:55:54;;;;;;;;;;;;;;;27.19;32.35;100551.69;5056848;28;1151;-34
2023/06/30 01:58:20;;;;;;;;;;;;;;;27.01;32.31;100546.63;5072214;28;1086;-33
2023/06/30 02:00:46;;;;;;;;;;;;;;;27.23;31.89;100552.97;5057359;28;1980;-33
2023/06/30 02:03:11;;;;;;;;;;;;;;;27.19;32.12;100549.00;5056970;28;1147;-34
2023/06/30 02:05:37;;;;;;;;;;;;;;;26.93;32.33;100539.47;5057052;28;1015;-34
2023/06/30 02:08:02;;;;;;;;;;;;;;;26.98;32.21;100542.44;5055815;28;1095;-31
2023/06/30 02:10:29;;;;;;;;;;;;;;;27.05;32.31;100545.28;5072281;28;907;-34
2023/06/30 02:12:55;;;;;;;;;;;;;;;26.99;32.65;100549.50;5056578;28;999;-33
2023/06/30 02:15:20;;;;;;;;;;;;;;;27.05;32.59;100547.97;5057069;28;1067;-33
2023/06/30 02:17:46;;;;;;;;;;;;;;;26.90;32.83;100558.75;5056383;28;1246;-34
2023/06/30 02:20:13;;;;;;;;;;;;;;;27.06;32.31;100551.53;5055276;28;1906;-33
2023/06/30 02:22:39;;;;;;;;;;;;;;;26.95;32.61;100553.63;5054929;28;1179;-35
2023/06/30 02:25:05;;;;;;;;;;;;;;;27.01;32.42;100552.91;5056799;28;1051;-34
2023/06/30 02:27:30;;;;;;;;;;;;;;;27.06;32.02;100560.44;5056706;28;1117;-34
2023/06/30 02:29:56;;;;;;;;;;;;;;;27.16;31.97;100556.63;5056833;28;1070;-34
2023/06/30 02:32:22;;;;;;;;;;;;;;;26.94;32.33;100561.91;5056825;28;1071;-32
2023/06/30 02:34:47;;;;;;;;;;;;;;;27.16;31.97;100562.84;5054972;28;1041;-35
2023/06/30 02:37:13;;;;;;;;;;;;;;;26.88;32.54;100566.19;5056241;28;1119;-33
2023/06/30 02:39:39;;;;;;;;;;;;;;;27.02;32.44;100569.94;5071962;28;1969;-34
2023/06/30 02:42:04;;;;;;;;;;;;;;;27.07;32.11;100555.88;5054740;28;1154;-34
2023/06/30 02:44:30;;;;;;;;;;;;;;;27.03;32.07;100563.50;5056130;28;1183;-32
2023/06/30 02:46:55;;;;;;;;;;;;;;;27.05;32.28;100563.31;5056122;28;1134;-33
2023/06/30 02:49:22;;;;;;;;;;;;;;;26.89;32.10;100562.47;5056849;28;1015;-33
2023/06/30 02:51:48;;;;;;;;;;;;;;;26.88;32.19;100572.44;5055908;28;1083;-34
2023/06/30 02:54:13;;;;;;;;;;;;;;;27.10;32.30;100566.31;5054533;28;1313;-34
2023/06/30 02:56:39;;;;;;;;;;;;;;;26.94;32.68;100567.31;5054466;28;1195;-32
2023/06/30 02:59:04;;;;;;;;;;;;;;;26.98;32.44;100568.59;5054381;28;1976;-34
2023/06/30 03:01:30;;;;;;;;;;;;;;;26.93;32.57;100573.72;5054994;28;1143;-33
2023/06/30 03:03:55;;;;;;;;;;;;;;;27.09;32.24;100575.44;5088599;28;1360;-35
2023/06/30 03:06:25;;;;;;;;;;;;;;;27.01;32.80;100576.31;5054794;28;1168;-34
2023/06/30 03:08:50;;;;;;;;;;;;;;;26.94;32.89;100575.41;5054999;28;1155;-33
2023/06/30 03:11:16;;;;;;;;;;;;;;;26.87;32.77;100575.31;5054476;28;1343;-34
2023/06/30 03:13:43;;;;;;;;;;;;;;;26.80;32.76;100577.91;5054633;28;1232;-32
2023/06/30 03:16:09;;;;;;;;;;;;;;;26.94;32.58;100580.81;5054243;28;1170;-34
2023/06/30 03:18:35;;;;;;;;;;;;;;;27.09;32.44;100576.25;5054914;28;1115;-33
2023/06/30 03:21:01;;;;;;;;;;;;;;;27.00;32.36;100572.81;5054604;28;1906;-34
2023/06/30 03:23:27;;;;;;;;;;;;;;;27.05;32.16;100574.13;5054556;28;1310;-33
2023/06/30 03:25:52;;;;;;;;;;;;;;;26.93;32.10;100571.88;5054249;28;1087;-33
2023/06/30 03:28:19;;;;;;;;;;;;;;;27.02;32.24;100575.34;5055050;28;1174;-33
2023/06/30 03:30:44;;;;;;;;;;;;;;;27.12;31.97;100575.91;5055665;28;1191;-34
2023/06/30 03:33:10;;;;;;;;;;;;;;;26.97;32.34;100567.78;5071109;28;1464;-33
2023/06/30 03:35:35;;;;;;;;;;;;;;;26.87;32.54;100568.06;5054556;28;1103;-32
2023/06/30 03:38:01;;;;;;;;;;;;;;;26.11;33.72;100569.72;5055645;28;1083;-31
2023/06/30 03:40:26;;;;;;;;;;;;;;;26.08;34.03;100563.84;5054270;28;1913;-33
2023/06/30 03:42:52;;;;;;;;;;;;;;;26.09;34.17;100565.56;5054463;28;1564;-32
2023/06/30 03:45:17;;;;;;;;;;;;;;;25.96;34.27;100561.59;5055739;28;1207;-32
2023/06/30 03:47:43;;;;;;;;;;;;;;;26.02;34.23;100574.38;5055603;28;922;-31
2023/06/30 03:50:08;;;;;;;;;;;;;;;25.84;34.92;100577.31;5071205;28;1058;-30
2023/06/30 03:52:34;;;;;;;;;;;;;;;25.73;35.75;100575.03;5054465;28;1144;-32
2023/06/30 03:55:00;;;;;;;;;;;;;;;25.23;37.02;100573.44;5070823;28;1000;-32
2023/06/30 03:57:25;;;;;;;;;;;;;;;25.18;37.12;100573.09;5046480;28;1160;-32
2023/06/30 03:59:51;;;;;;;;;;;;;;;24.43;38.07;100570.56;5056885;28;1906;-33
2023/06/30 04:02:17;;;;;;;;;;;;;;;24.07;39.35;100569.84;5057184;28;1460;-32
2023/06/30 04:04:42;;;;;;;;;;;;;;;24.75;37.63;100578.75;5058860;28;1082;-33
2023/06/30 04:07:08;;;;;;;;;;;;;;;24.51;38.10;100575.91;5059131;28;1133;-28
2023/06/30 04:09:33;;;;;;;;;;;;;;;25.05;37.06;100576.34;5058969;28;1051;-33
2023/06/30 04:11:59;;;;;;;;;;;;;;;25.47;36.33;100576.19;5058679;28;1076;-30
2023/06/30 04:14:24;;;;;;;;;;;;;;;25.56;36.59;100577.81;5058988;28;1103;-32
2023/06/30 04:16:50;;;;;;;;;;;;;;;25.77;35.77;100584.47;5059144;28;1126;-34
2023/06/30 04:19:15;;;;;;;;;;;;;;;25.34;36.92;100580.25;5059428;28;1909;-30
2023/06/30 04:21:41;;;;;;;;;;;;;;;25.66;35.63;100580.31;5059239;28;1221;-32
2023/06/30 04:24:06;;;;;;;;;;;;;;;25.32;36.99;100579.63;5058439;28;956;-34
2023/06/30 04:26:32;;;;;;;;;;;;;;;24.52;38.74;100574.94;5059109;28;1027;-34
2023/06/30 04:28:57;;;;;;;;;;;;;;;24.15;39.81;100582.47;5059164;28;1039;-35
2023/06/30 04:31:23;;;;;;;;;;;;;;;24.71;38.50;100575.56;5058854;28;1149;-33
2023/06/30 04:33:49;;;;;;;;;;;;;;;25.15;37.95;100586.91;5056654;28;1028;-33
2023/06/30 04:36:17;;;;;;;;;;;;;;;25.31;38.38;100586.84;5058356;28;898;-35
2023/06/30 04:38:44;;;;;;;;;;;;;;;25.70;36.84;100589.72;5062156;28;1149;-31
2023/06/30 04:41:10;;;;;;;;;;;;;;;25.51;37.11;100590.97;5050796;28;1910;-34
2023/06/30 04:43:35;;;;;;;;;;;;;;;25.62;36.88;100592.44;5052499;28;1317;-33
2023/06/30 04:46:01;;;;;;;;;;;;;;;25.65;37.40;100597.50;5058341;28;1202;-33
2023/06/30 04:48:26;;;;;;;;;;;;;;;25.78;37.08;100596.91;5058314;28;974;-34
2023/06/30 04:50:52;;;;;;;;;;;;;;;25.78;36.75;100595.06;5058058;28;1119;-35
2023/06/30 04:53:17;;;;;;;;;;;;;;;25.85;36.61;100597.03;5058515;28;1266;-32
2023/06/30 04:55:43;;;;;;;;;;;;;;;25.98;36.42;100597.28;5058219;28;1131;-35
2023/06/30 04:58:08;;;;;;;;;;;;;;;26.00;36.36;100599.81;5058040;28;1203;-30
2023/06/30 05:00:34;;;;;;;;;;;;;;;26.21;35.81;100595.63;5057894;28;1979;-34
2023/06/30 05:02:59;;;;;;;;;;;;;;;25.69;37.23;100598.84;5081376;28;2392;-32
2023/06/30 05:05:25;;;;;;;;;;;;;;;25.48;37.51;100602.09;5040209;28;1040;-32
2023/06/30 05:07:50;;;;;;;;;;;;;;;25.82;36.83;100602.78;5057583;28;1264;-34
2023/06/30 05:10:16;;;;;;;;;;;;;;;26.02;36.40;100605.88;5044725;28;1068;-31
2023/06/30 05:12:42;;;;;;;;;;;;;;;26.17;36.11;100611.31;5057471;28;988;-33
2023/06/30 05:15:08;;;;;;;;;;;;;;;26.27;35.77;100617.31;5048648;28;1076;-32
2023/06/30 05:17:33;;;;;;;;;;;;;;;26.34;36.11;100611.22;5057596;28;1241;-32
2023/06/30 05:20:00;;;;;;;;;;;;;;;26.11;36.56;100615.56;5057427;28;1910;-31
2023/06/30 05:22:25;;;;;;;;;;;;;;;25.86;37.04;100607.63;5057523;28;1204;-30
2023/06/30 05:24:51;;;;;;;;;;;;;;;26.17;36.67;100611.31;5055455;28;1113;-32
2023/06/30 05:27:18;;;;;;;;;;;;;;;26.46;35.92;100617.84;5057879;28;1086;-30
2023/06/30 05:29:43;;;;;;;;;;;;;;;26.43;35.89;100617.38;5056503;28;1055;-33
2023/06/30 05:32:09;;;;;;;;;;;;;;;26.47;35.72;100618.69;5058024;28;1104;-31
2023/06/30 05:34:34;;;;;;;;;;;;;;;26.40;36.06;100613.19;5056873;28;1088;-27
2023/06/30 05:37:00;;;;;;;;;;;;;;;24.97;39.56;100614.91;5057689;28;1202;-22
2023/06/30 05:39:25;;;;;;;;;;;;;;;25.43;38.58;100611.53;5041310;28;1983;-22
2023/06/30 05:41:51;;;;;;;;;;;;;;;24.66;40.55;100615.56;5056524;28;1059;-31
2023/06/30 05:44:16;;;;;;;;;;;;;;;25.59;38.25;100619.72;5056946;28;1139;-28
2023/06/30 05:46:42;;;;;;;;;;;;;;;25.88;38.44;100621.78;5057173;28;1151;-28
2023/06/30 05:49:07;;;;;;;;;;;;;;;26.03;37.41;100621.00;5056875;28;965;-31
2023/06/30 05:51:33;;;;;;;;;;;;;;;26.07;37.45;100616.94;5056507;28;1087;-31
2023/06/30 05:53:59;;;;;;;;;;;;;;;26.26;37.16;100622.84;5055865;28;1375;-29
2023/06/30 05:56:24;;;;;;;;;;;;;;;26.19;37.20;100622.78;5057410;28;1151;-32
2023/06/30 05:58:50;;;;;;;;;;;;;;;26.31;36.54;100625.03;5056687;28;1118;-31
2023/06/30 06:01:16;;;;;;;;;;;;;;;26.57;36.49;100618.44;5056866;28;1964;-32
2023/06/30 06:03:41;;;;;;;;;;;;;;;26.78;36.24;100617.72;5055408;28;1195;-36
2023/06/30 06:06:07;;;;;;;;;;;;;;;27.09;34.94;100621.34;5056377;28;1337;-34
2023/06/30 06:08:32;;;;;;;;;;;;;;;26.92;35.09;100613.38;5044644;28;1139;-33
2023/06/30 06:10:58;;;;;;;;;;;;;;;26.89;35.05;100611.88;5047140;28;1293;-34
2023/06/30 06:13:33;;;;;;;;;;;;;;;26.92;34.59;100617.94;5042919;28;1253;-35
2023/06/30 06:15:58;;;;;;;;;;;;;;;27.23;35.05;100614.25;5055869;28;1111;-34
2023/06/30 06:18:24;;;;;;;;;;;;;;;27.30;34.33;100614.31;5056311;28;1211;-35
2023/06/30 06:20:49;;;;;;;;;;;;;;;27.17;34.27;100618.53;5046481;28;1905;-32
2023/06/30 06:23:15;;;;;;;;;;;;;;;26.99;34.53;100608.91;5062082;28;1345;-30
2023/06/30 06:25:40;;;;;;;;;;;;;;;27.12;33.58;100610.16;5051881;28;1253;-33
2023/06/30 06:28:06;;;;;;;;;;;;;;;27.07;34.08;100617.97;5055974;28;1332;-32
2023/06/30 06:30:31;;;;;;;;;;;;;;;27.08;33.40;100607.00;5055952;28;1015;-34
2023/06/30 06:32:57;;;;;;;;;;;;;;;27.36;33.29;100605.50;5047410;28;1289;-33
2023/06/30 06:35:22;;;;;;;;;;;;;;;27.12;33.54;100610.16;5041298;28;1329;-26
2023/06/30 06:37:48;;;;;;;;;;;;;;;27.11;33.75;100608.50;5044760;28;1314;-24
2023/06/30 06:40:13;;;;;;;;;;;;;;;26.95;34.23;100604.91;5056178;28;1979;-24
2023/06/30 06:42:39;;;;;;;;;;;;;;;27.23;33.55;100598.03;5055576;28;1265;-25
2023/06/30 06:45:05;;;;;;;;;;;;;;;27.13;34.01;100593.78;5048921;28;1115;-26
2023/06/30 06:47:48;;;;;;;;;;;;;;;27.06;34.12;100597.41;5050141;28;1062;-26
2023/06/30 06:50:14;;;;;;;;;;;;;;;27.13;33.59;100596.47;5055478;28;1051;-25
2023/06/30 06:52:39;;;;;;;;;;;;;;;27.26;33.53;100603.06;5055715;28;1109;-28
2023/06/30 06:55:05;;;;;;;;;;;;;;;27.30;33.85;100590.03;5054928;28;1086;-29
2023/06/30 06:57:31;;;;;;;;;;;;;;;27.42;33.14;100595.78;5055074;28;1348;-34
2023/06/30 06:59:57;;;;;;;;;;;;;;;27.38;33.19;100585.38;5053810;28;1910;-24
2023/06/30 07:02:22;;;;;;;;;;;;;;;27.48;33.11;100590.47;5055324;28;1234;-26
2023/06/30 07:04:48;;;;;;;;;;;;;;;27.33;33.97;100584.25;5055549;28;1104;-25
2023/06/30 07:07:13;;;;;;;;;;;;;;;27.49;33.48;100591.31;5053140;28;1465;-25
2023/06/30 07:09:39;;;;;;;;;;;;;;;27.42;33.34;100588.53;5055298;28;1079;-33
2023/06/30 07:12:04;;;;;;;;;;;;;;;27.31;34.06;100589.84;5054644;28;1034;-34
2023/06/30 07:14:30;;;;;;;;;;;;;;;27.34;34.20;100591.34;5055346;28;1105;-35
2023/06/30 07:16:55;;;;;;;;;;;;;;;27.34;34.13;100588.63;5055892;28;1215;-35
2023/06/30 07:19:21;;;;;;;;;;;;;;;27.34;34.26;100586.75;5055561;28;1902;-35
2023/06/30 07:21:46;;;;;;;;;;;;;;;27.44;34.21;100588.34;5056173;28;1191;-34
2023/06/30 07:24:12;;;;;;;;;;;;;;;27.35;34.04;100593.00;5055500;28;1054;-34
2023/06/30 07:26:37;;;;;;;;;;;;;;;27.46;34.42;100589.00;5055547;28;1107;-35
2023/06/30 07:29:03;;;;;;;;;;;;;;;27.44;34.19;100591.03;5055808;28;1187;-32
2023/06/30 07:31:31;;;;;;;;;;;;;;;27.50;33.70;100588.41;5057699;28;1107;-35
2023/06/30 07:33:56;;;;;;;;;;;;;;;27.36;34.27;100592.00;5059326;28;1054;-35
2023/06/30 07:36:22;;;;;;;;;;;;;;;27.47;34.15;100593.34;5059482;28;1034;-34
2023/06/30 07:38:48;;;;;;;;;;;;;;;27.36;34.44;100583.88;5059391;28;1125;-33
2023/06/30 07:41:13;;;;;;;;;;;;;;;27.45;34.36;100590.84;5059689;28;1910;-34
2023/06/30 07:43:39;;;;;;;;;;;;;;;27.51;34.19;100595.47;5059833;28;1143;-33
2023/06/30 07:46:04;;;;;;;;;;;;;;;27.43;34.49;100587.50;5059625;28;1141;-32
2023/06/30 07:48:30;;;;;;;;;;;;;;;27.39;34.42;100584.31;5058684;28;1074;-34
2023/06/30 07:50:55;;;;;;;;;;;;;;;27.46;34.75;100589.81;5059348;28;1114;-31
2023/06/30 07:53:21;;;;;;;;;;;;;;;27.63;34.17;100592.28;5059044;28;1175;-34
2023/06/30 07:55:46;;;;;;;;;;;;;;;27.77;34.23;100587.06;5058993;28;1083;-34
2023/06/30 07:58:12;;;;;;;;;;;;;;;27.53;34.85;100589.06;5058902;28;1038;-32
2023/06/30 08:00:37;;;;;;;;;;;;;;;27.52;34.60;100590.94;5058770;28;1910;-33
2023/06/30 08:03:03;;;;;;;;;;;;;;;27.96;33.80;100596.44;5058224;28;1828;-36
2023/06/30 08:05:28;;;;;;;;;;;;;;;27.92;34.52;100589.72;5059286;28;1066;-34
2023/06/30 08:07:54;;;;;;;;;;;;;;;28.01;34.09;100590.44;5059078;28;1063;-33
2023/06/30 08:10:19;;;;;;;;;;;;;;;27.77;34.79;100592.47;5059453;28;1056;-34
2023/06/30 08:12:45;;;;;;;;;;;;;;;27.77;35.19;100587.06;5058571;28;1147;-33
2023/06/30 08:15:10;;;;;;;;;;;;;;;27.74;35.52;100583.72;5047843;28;1233;-33
2023/06/30 08:17:36;;;;;;;;;;;;;;;27.79;35.06;100582.31;5054908;28;1278;-32
2023/06/30 08:20:01;;;;;;;;;;;;;;;27.94;34.99;100577.69;5058202;28;1914;-34
2023/06/30 08:22:27;;;;;;;;;;;;;;;27.92;35.52;100581.59;5058381;28;1258;-35
2023/06/30 08:24:53;;;;;;;;;;;;;;;27.94;35.05;100582.25;5057536;28;1317;-34
2023/06/30 08:27:19;;;;;;;;;;;;;;;27.93;35.19;100580.56;5058062;28;1143;-33
2023/06/30 08:29:44;;;;;;;;;;;;;;;28.02;34.88;100570.47;5053557;28;1344;-34
2023/06/30 08:32:10;;;;;;;;;;;;;;;28.08;34.99;100575.94;5057493;28;1071;-32
2023/06/30 08:34:36;;;;;;;;;;;;;;;27.99;35.23;100571.69;5058451;28;1151;-35
2023/06/30 08:37:02;;;;;;;;;;;;;;;27.94;35.29;100577.69;5058331;28;893;-32
2023/06/30 08:39:28;;;;;;;;;;;;;;;27.97;35.33;100576.47;5058277;28;1886;-35
2023/06/30 08:41:54;;;;;;;;;;;;;;;27.91;35.55;100572.66;5057862;28;1067;-35
2023/06/30 08:44:25;;;;;;;;;;;;;;;28.19;34.97;100580.00;5057755;28;1126;-33
2023/06/30 08:46:51;;;;;;;;;;;;;;;28.10;35.17;100573.03;5057955;28;1106;-34
2023/06/30 08:49:16;;;;;;;;;;;;;;;27.95;35.50;100571.25;5050399;28;1104;-30
2023/06/30 08:51:42;;;;;;;;;;;;;;;27.92;35.78;100562.69;5057458;28;1382;-33
2023/06/30 08:54:08;;;;;;;;;;;;;;;28.00;35.27;100559.84;5056369;28;1356;-34
2023/06/30 08:56:33;;;;;;;;;;;;;;;28.00;35.51;100557.16;5046877;28;1428;-32
2023/06/30 08:58:59;;;;;;;;;;;;;;;28.08;34.96;100556.16;5056625;28;1008;-34
2023/06/30 09:01:24;;;;;;;;;;;;;;;28.34;34.18;100554.75;5057070;28;1910;-33
2023/06/30 09:03:50;;;;;;;;;;;;;;;28.27;35.25;100564.66;5073006;28;1324;-32
2023/06/30 09:06:15;;;;;;;;;;;;;;;28.22;35.59;100547.16;5057449;28;1174;-33
2023/06/30 09:08:44;;;;;;;;;;;;;;;28.15;34.89;100548.97;5056518;28;1107;-32
2023/06/30 09:11:09;;;;;;;;;;;;;;;28.05;35.27;100548.44;5056315;28;1143;-35
2023/06/30 09:13:35;;;;;;;;;;;;;;;28.26;34.09;100534.06;5056735;28;942;-34
2023/06/30 09:16:04;;;;;;;;;;;;;;;28.28;33.82;100545.53;5055605;28;1127;-32
2023/06/30 09:18:29;;;;;;;;;;;;;;;28.46;33.68;100539.66;5056980;28;1056;-34
2023/06/30 09:20:55;;;;;;;;;;;;;;;28.15;34.22;100548.13;5055993;28;1988;-36
2023/06/30 09:23:20;;;;;;;;;;;;;;;28.19;34.55;100549.41;5058063;28;1114;-33
2023/06/30 09:25:46;;;;;;;;;;;;;;;28.23;33.87;100548.81;5057348;28;1135;-33
2023/06/30 09:28:13;;;;;;;;;;;;;;;28.30;33.75;100538.06;5058196;28;1012;-35
2023/06/30 09:30:40;;;;;;;;;;;;;;;28.10;34.57;100537.88;5056691;28;1451;-33
2023/06/30 09:33:06;;;;;;;;;;;;;;;28.34;34.03;100542.06;5057918;28;1229;-35
2023/06/30 09:35:35;;;;;;;;;;;;;;;28.50;33.78;100533.84;5057620;28;1163;-32
2023/06/30 09:38:01;;;;;;;;;;;;;;;28.37;34.03;100535.44;5057070;28;907;-35
2023/06/30 09:40:26;;;;;;;;;;;;;;;28.33;33.69;100534.97;5056975;28;1977;-34
2023/06/30 09:42:53;;;;;;;;;;;;;;;28.33;34.30;100540.38;5057263;28;1221;-34
2023/06/30 09:45:18;;;;;;;;;;;;;;;28.11;34.41;100529.56;5055780;28;1188;-35
2023/06/30 09:47:49;;;;;;;;;;;;;;;28.42;33.97;100540.25;5057541;28;1074;-35
2023/06/30 09:50:15;;;;;;;;;;;;;;;28.30;34.40;100539.91;5056702;28;1054;-33
2023/06/30 09:52:40;;;;;;;;;;;;;;;28.47;34.31;100532.38;5057190;28;1123;-33
2023/06/30 09:55:09;;;;;;;;;;;;;;;28.34;33.83;100531.22;5057029;28;1004;-32
2023/06/30 09:57:41;;;;;;;;;;;;;;;28.36;33.78;100528.38;5057236;28;1209;-35
2023/06/30 10:00:07;;;;;;;;;;;;;;;28.51;33.60;100527.41;5056677;28;1969;-33
2023/06/30 10:02:33;;;;;;;;;;;;;;;28.51;33.51;100525.53;5056794;28;1016;-30
2023/06/30 10:04:58;;;;;;;;;;;;;;;28.69;33.30;100535.03;5056350;28;1080;-34
2023/06/30 10:07:23;;;;;;;;;;;;;;;28.47;34.05;100524.25;5056808;28;1003;-34
2023/06/30 10:09:49;;;;;;;;;;;;;;;28.34;34.20;100525.00;5055573;28;1122;-33
2023/06/30 10:12:14;;;;;;;;;;;;;;;28.48;34.10;100518.66;5071804;28;1315;-34
2023/06/30 10:14:40;;;;;;;;;;;;;;;28.50;33.91;100515.75;5054920;28;943;-33
2023/06/30 10:17:05;;;;;;;;;;;;;;;28.46;34.15;100519.91;5055149;28;1441;-32
2023/06/30 10:19:31;;;;;;;;;;;;;;;28.76;34.20;100521.53;5056327;28;1898;-35
2023/06/30 10:21:57;;;;;;;;;;;;;;;28.59;34.92;100516.44;5055227;28;1111;-34
2023/06/30 10:24:26;;;;;;;;;;;;;;;28.46;35.13;100515.28;5049646;28;1380;-32
2023/06/30 10:26:51;;;;;;;;;;;;;;;28.66;34.59;100514.59;5055238;28;1088;-35
2023/06/30 10:29:17;;;;;;;;;;;;;;;28.69;34.42;100510.66;5048015;28;1241;-34
2023/06/30 10:31:42;;;;;;;;;;;;;;;28.55;34.52;100513.28;5078023;28;1159;-34
2023/06/30 10:34:09;;;;;;;;;;;;;;;28.69;34.87;100507.94;5055157;28;1396;-33
2023/06/30 10:36:34;;;;;;;;;;;;;;;28.85;34.52;100506.78;5056237;28;1293;-32
2023/06/30 10:39:00;;;;;;;;;;;;;;;28.57;34.10;100443.56;5055454;28;1007;-34
2023/06/30 10:41:25;;;;;;;;;;;;;;;28.67;34.55;100500.03;5056119;28;1910;-33
2023/06/30 10:44:00;;;;;;;;;;;;;;;28.73;34.25;100501.94;5055161;28;1095;-33
2023/06/30 10:46:49;;;;;;;;;;;;;;;29.02;34.06;100499.19;5049558;28;1179;-34
2023/06/30 10:49:41;;;;;;;;;;;;;;;28.91;33.80;100495.13;5051975;28;1294;-32
2023/06/30 10:52:09;;;;;;;;;;;;;;;28.87;34.93;100509.28;5038947;28;2210;-32
2023/06/30 10:54:42;;;;;;;;;;;;;;;28.89;34.99;100499.94;5047544;28;1020;-34
2023/06/30 10:57:11;;;;;;;;;;;;;;;28.70;34.98;100499.63;5049204;28;1189;-34
2023/06/30 10:59:40;;;;;;;;;;;;;;;28.60;35.41;100491.88;5040268;28;1914;-33
2023/06/30 11:02:24;;;;;;;;;;;;;;;28.69;35.06;100487.16;5044493;28;876;-35
2023/06/30 11:04:50;;;;;;;;;;;;;;;28.76;35.23;100484.44;5042809;28;1344;-35
2023/06/30 11:07:16;;;;;;;;;;;;;;;28.69;35.21;100489.84;5048019;28;1329;-35
2023/06/30 11:10:00;;;;;;;;;;;;;;;28.66;34.84;100484.00;5055255;28;1457;-34
2023/06/30 11:12:29;;;;;;;;;;;;;;;28.48;35.31;100479.91;5055018;28;1097;-34
2023/06/30 11:14:58;;;;;;;;;;;;;;;28.64;35.19;100472.53;5066358;28;1309;-31
2023/06/30 11:17:24;;;;;;;;;;;;;;;28.63;35.54;100470.88;5055801;28;1109;-33
2023/06/30 11:20:01;;;;;;;;;;;;;;;29.00;34.93;100476.88;5055286;28;1891;-35
2023/06/30 11:22:30;;;;;;;;;;;;;;;29.40;35.67;100469.91;5043375;28;1234;-40
2023/06/30 11:24:56;;;;;;;;;;;;;;;29.66;35.68;100471.84;5041346;28;1415;-41
2023/06/30 11:27:21;;;;;;;;;;;;;;;29.90;35.63;100476.84;5041451;28;1050;-41
2023/06/30 11:29:52;;;;;;;;;;;;;;;29.93;34.96;100471.00;5038739;28;1376;-39
2023/06/30 11:32:18;;;;;;;;;;;;;;;29.91;34.91;100470.41;5054781;28;1435;-36
2023/06/30 11:34:44;;;;;;;;;;;;;;;29.89;34.79;100467.91;5054199;28;1418;-34
2023/06/30 11:37:09;;;;;;;;;;;;;;;29.79;35.51;100473.75;5052156;28;1391;-35
2023/06/30 11:43:10;;;;;;;;;;;;;;;29.61;35.47;100468.94;5053935;28;1110;-34
2023/06/30 11:45:35;;;;;;;;;;;;;;;29.67;36.37;100469.97;5055459;28;1155;-40
2023/06/30 11:51:36;;;;;;;;;;;;;;;29.90;35.82;100466.84;5053790;28;1127;-36
2023/06/30 11:54:01;;;;;;;;;;;;;;;29.68;36.17;100466.22;5054870;28;1157;-27
2023/06/30 11:56:29;;;;;;;;;;;;;;;29.76;35.05;100468.72;5054951;28;1003;-27
2023/06/30 11:58:54;;;;;;;;;;;;;;;29.46;35.93;100469.09;5051180;28;1174;-25
2023/06/30 12:01:20;;;;;;;;;;;;;;;29.38;35.73;100455.75;5050741;28;1902;-27
2023/06/30 12:03:45;;;;;;;;;;;;;;;29.19;35.90;100461.75;5051658;28;1492;-27
2023/06/30 12:06:11;;;;;;;;;;;;;;;29.16;35.64;100462.13;5047875;28;1304;-26
2023/06/30 12:08:38;;;;;;;;;;;;;;;29.28;35.23;100456.97;5055072;28;1544;-24
2023/06/30 12:11:04;;;;;;;;;;;;;;;29.21;35.80;100451.53;5043374;28;1371;-27
2023/06/30 12:13:29;;;;;;;;;;;;;;;29.22;35.58;100444.25;5037952;28;1434;-26
2023/06/30 12:15:55;;;;;;;;;;;;;;;29.14;35.37;100434.44;5045065;28;1179;-24
2023/06/30 12:18:30;;;;;;;;;;;;;;;29.04;35.16;100434.00;5049128;28;1415;-26
2023/06/30 12:20:56;;;;;;;;;;;;;;;28.78;35.91;100430.94;5048386;28;1975;-24
2023/06/30 12:23:26;;;;;;;;;;;;;;;28.76;35.00;100430.31;5038636;28;1469;-25
2023/06/30 12:25:52;;;;;;;;;;;;;;;28.80;35.32;100426.16;5056840;28;1112;-38
2023/06/30 12:28:17;;;;;;;;;;;;;;;28.87;35.57;100423.50;5058873;28;1143;-40
2023/06/30 12:30:43;;;;;;;;;;;;;;;29.16;34.94;100424.22;5058717;28;1151;-40
2023/06/30 12:33:10;;;;;;;;;;;;;;;29.28;34.56;100416.31;5058372;28;1103;-39
2023/06/30 12:35:38;;;;;;;;;;;;;;;29.34;34.26;100418.19;5056399;28;1015;-39
2023/06/30 12:38:09;;;;;;;;;;;;;;;29.29;33.81;100415.31;5047521;28;1222;-39
2023/06/30 12:40:34;;;;;;;;;;;;;;;29.42;34.09;100410.91;5058475;28;1897;-39
2023/06/30 12:43:00;;;;;;;;;;;;;;;29.27;34.45;100406.53;5058154;28;1393;-39
2023/06/30 12:45:25;;;;;;;;;;;;;;;29.31;34.18;100413.19;5058073;28;1147;-40
2023/06/30 12:47:51;;;;;;;;;;;;;;;29.86;33.34;100403.25;5057298;28;1066;-40
2023/06/30 12:50:17;;;;;;;;;;;;;;;29.59;33.12;100397.84;5057471;28;1250;-39